Time;durP1;ratioP1;P1;durP2;ratioP2;P2;SDS_P1;SDS_P2;PMS_P1;PMS_P2;Temp;Humidity;BMP_temperature;BMP_pressure;BME280_temperature;BME280_humidity;BME280_pressure;Samples;Min_cycle;Max_cycle;Signal;HPM_P1;HPM_P2
2023/11/20 00:00:23;;;;;;;3.97;1.17;;;10.90;98.40;;;;;;4979828;28;20421;-45
2023/11/20 00:02:51;;;;;;;4.23;1.90;;;10.90;98.60;;;;;;4985028;28;20466;-45
2023/11/20 00:08:15;;;;;;;1.73;0.97;;;10.90;98.40;;;;;;5132967;23;20509;-43
2023/11/20 00:10:45;;;;;;;3.13;1.23;;;10.90;98.30;;;;;;4987146;28;20550;-44
2023/11/20 00:13:17;;;;;;;1.83;1.10;;;10.90;98.40;;;;;;4965044;28;20434;-43
2023/11/20 00:15:45;;;;;;;2.73;1.13;;;10.90;98.20;;;;;;4992287;28;20860;-44
2023/11/20 00:18:14;;;;;;;5.57;1.27;;;10.90;98.70;;;;;;4989974;28;20458;-44
2023/11/20 00:20:42;;;;;;;3.40;1.20;;;10.90;98.30;;;;;;4987810;28;20518;-43
2023/11/20 00:23:10;;;;;;;3.30;0.80;;;10.90;98.30;;;;;;4986773;28;20452;-44
2023/11/20 00:25:38;;;;;;;8.57;2.00;;;10.90;98.20;;;;;;4989476;28;20451;-44
2023/11/20 00:28:06;;;;;;;2.90;1.40;;;10.90;98.20;;;;;;4959947;28;20482;-44
2023/11/20 00:30:35;;;;;;;2.27;1.10;;;10.90;98.30;;;;;;4967168;28;20440;-44
2023/11/20 00:33:04;;;;;;;2.17;1.10;;;10.90;98.20;;;;;;4965091;28;20555;-44
2023/11/20 00:35:32;;;;;;;2.23;1.17;;;10.90;98.30;;;;;;4963475;28;20456;-44
2023/11/20 00:38:03;;;;;;;5.07;1.00;;;10.90;98.30;;;;;;4970783;28;20561;-43
2023/11/20 00:40:32;;;;;;;3.47;1.47;;;10.90;98.40;;;;;;4960386;28;20464;-44
2023/11/20 00:43:01;;;;;;;3.40;1.03;;;10.90;98.40;;;;;;4965467;28;20980;-43
2023/11/20 00:45:29;;;;;;;3.47;1.47;;;10.90;98.40;;;;;;4964746;28;20831;-43
2023/11/20 00:47:59;;;;;;;4.13;0.90;;;10.90;98.20;;;;;;4954989;28;20480;-44
2023/11/20 00:50:27;;;;;;;3.93;1.00;;;10.90;98.20;;;;;;4961867;28;20453;-43
2023/11/20 00:52:55;;;;;;;4.13;1.10;;;10.90;98.20;;;;;;4967950;28;20481;-44
2023/11/20 00:55:23;;;;;;;3.20;1.00;;;10.90;98.30;;;;;;4969181;28;20452;-44
2023/11/20 00:57:51;;;;;;;4.20;0.80;;;10.90;98.30;;;;;;4952593;28;21067;-43
2023/11/20 01:00:21;;;;;;;4.47;1.60;;;10.90;98.20;;;;;;4964014;28;20465;-44
2023/11/20 01:02:49;;;;;;;4.73;1.30;;;10.90;98.50;;;;;;4948901;28;20545;-44
2023/11/20 01:05:25;;;;;;;5.13;1.13;;;10.90;98.40;;;;;;4969903;28;20441;-43
2023/11/20 01:07:53;;;;;;;2.87;0.80;;;10.90;98.30;;;;;;4966045;28;20483;-44
2023/11/20 01:10:21;;;;;;;3.57;1.10;;;10.90;98.20;;;;;;4968732;28;20445;-43
2023/11/20 01:12:52;;;;;;;3.53;1.63;;;10.90;98.40;;;;;;4954681;28;20469;-43
2023/11/20 01:15:20;;;;;;;2.23;0.93;;;10.90;98.20;;;;;;4971454;28;21027;-43
2023/11/20 01:17:51;;;;;;;2.60;0.97;;;10.90;98.20;;;;;;4985879;28;20477;-43
2023/11/20 01:20:23;;;;;;;2.60;0.60;;;10.90;98.30;;;;;;4968117;28;20450;-44
2023/11/20 01:22:51;;;;;;;2.90;1.10;;;10.90;98.20;;;;;;4984992;28;20484;-43
2023/11/20 01:25:19;;;;;;;2.77;1.13;;;10.90;98.10;;;;;;4987230;28;20507;-44
2023/11/20 01:27:48;;;;;;;3.47;1.30;;;10.90;98.20;;;;;;4991095;28;20470;-44
2023/11/20 01:30:16;;;;;;;1.40;0.60;;;10.90;98.10;;;;;;4985232;28;20934;-43
2023/11/20 01:32:46;;;;;;;3.20;0.80;;;10.90;98.10;;;;;;4985743;28;20489;-44
2023/11/20 01:35:14;;;;;;;4.73;1.50;;;10.90;98.20;;;;;;4989594;28;20470;-43
2023/11/20 01:37:44;;;;;;;2.00;1.17;;;10.90;98.10;;;;;;4980951;28;20504;-43
2023/11/20 01:40:14;;;;;;;2.50;1.43;;;10.90;98.20;;;;;;4979696;28;20925;-44
2023/11/20 01:42:42;;;;;;;3.47;1.10;;;10.90;98.00;;;;;;4964991;28;20498;-43
2023/11/20 01:45:11;;;;;;;3.27;1.10;;;10.90;98.20;;;;;;4969847;28;20477;-44
2023/11/20 01:47:39;;;;;;;2.67;1.20;;;10.90;98.10;;;;;;4970093;28;20576;-43
2023/11/20 01:50:10;;;;;;;2.37;1.17;;;10.90;98.10;;;;;;4971049;28;20460;-44
2023/11/20 01:52:42;;;;;;;1.90;0.83;;;10.90;98.10;;;;;;4982514;28;20465;-43
2023/11/20 01:55:14;;;;;;;1.67;1.00;;;10.90;98.10;;;;;;4962153;28;21029;-44
2023/11/20 01:57:45;;;;;;;2.97;1.00;;;10.90;98.00;;;;;;4983325;28;20467;-45
2023/11/20 02:00:16;;;;;;;2.60;0.93;;;10.90;98.00;;;;;;4972885;28;20939;-45
2023/11/20 02:02:45;;;;;;;4.30;1.00;;;10.90;98.10;;;;;;4968679;28;20473;-43
2023/11/20 02:05:14;;;;;;;2.93;1.17;;;10.90;98.10;;;;;;4963245;28;20539;-43
2023/11/20 02:07:42;;;;;;;2.80;0.93;;;10.90;98.00;;;;;;4982618;28;20468;-43
2023/11/20 02:10:13;;;;;;;1.80;0.87;;;10.90;98.10;;;;;;4986592;28;20475;-44
2023/11/20 02:12:41;;;;;;;3.17;0.83;;;10.90;98.10;;;;;;4969883;28;20492;-44
2023/11/20 02:15:11;;;;;;;4.40;1.00;;;10.90;98.00;;;;;;4973010;28;20444;-44
2023/11/20 02:17:39;;;;;;;1.93;0.67;;;10.90;98.10;;;;;;4972111;28;20475;-43
2023/11/20 02:20:08;;;;;;;2.03;1.17;;;10.90;98.00;;;;;;4969756;28;20952;-43
2023/11/20 02:22:37;;;;;;;2.53;1.20;;;10.90;98.10;;;;;;4964816;28;20465;-43
2023/11/20 02:25:07;;;;;;;1.87;0.70;;;10.90;98.00;;;;;;4979301;28;20835;-43
2023/11/20 02:27:49;;;;;;;2.63;0.87;;;10.90;98.00;;;;;;4986313;28;20545;-44
2023/11/20 02:30:22;;;;;;;2.33;1.00;;;10.90;98.00;;;;;;4966605;28;20485;-44
2023/11/20 02:32:51;;;;;;;2.07;0.80;;;10.90;98.00;;;;;;4968910;28;20472;-44
2023/11/20 02:35:19;;;;;;;3.47;0.90;;;10.90;98.10;;;;;;4986439;28;20483;-44
2023/11/20 02:37:49;;;;;;;2.40;1.10;;;10.90;98.20;;;;;;4966814;28;20842;-44
2023/11/20 02:40:18;;;;;;;3.23;1.07;;;10.90;98.00;;;;;;4982743;28;20467;-43
2023/11/20 02:42:46;;;;;;;2.17;1.00;;;10.90;98.10;;;;;;4980839;28;21023;-45
2023/11/20 02:45:14;;;;;;;2.30;0.80;;;10.90;98.00;;;;;;4966818;28;20438;-44
2023/11/20 02:47:44;;;;;;;3.00;0.93;;;10.90;98.10;;;;;;4982647;28;20879;-44
2023/11/20 02:50:12;;;;;;;2.50;1.00;;;10.90;98.10;;;;;;4971275;28;20475;-43
2023/11/20 02:52:40;;;;;;;2.17;0.70;;;10.90;98.00;;;;;;4985663;28;20462;-44
2023/11/20 02:55:08;;;;;;;1.77;0.67;;;10.90;98.10;;;;;;4982063;28;20542;-44
2023/11/20 02:57:37;;;;;;;2.50;0.80;;;10.90;98.10;;;;;;4986005;28;20507;-43
2023/11/20 03:00:11;;;;;;;2.40;0.80;;;10.90;98.10;;;;;;4978273;28;20423;-44
2023/11/20 03:02:39;;;;;;;2.60;1.00;;;10.90;98.10;;;;;;4965030;28;20463;-44
2023/11/20 03:05:09;;;;;;;2.60;0.90;;;10.90;98.00;;;;;;4978348;28;20451;-44
2023/11/20 03:07:37;;;;;;;1.67;1.07;;;10.90;98.10;;;;;;4984996;28;20470;-44
2023/11/20 03:10:06;;;;;;;3.50;1.03;;;10.90;98.10;;;;;;4980713;28;20472;-43
2023/11/20 03:12:37;;;;;;;3.43;0.60;;;10.90;98.10;;;;;;4981959;28;20463;-43
2023/11/20 03:15:06;;;;;;;1.90;0.63;;;10.90;98.00;;;;;;4990018;28;20445;-44
2023/11/20 03:17:34;;;;;;;2.23;0.70;;;10.90;98.00;;;;;;4984233;28;20493;-44
2023/11/20 03:20:02;;;;;;;1.37;0.43;;;10.90;98.10;;;;;;4966500;28;20479;-43
2023/11/20 03:22:32;;;;;;;3.70;1.13;;;10.90;98.00;;;;;;4971374;28;20485;-44
2023/11/20 03:25:00;;;;;;;1.80;0.80;;;10.90;98.00;;;;;;4968966;28;21003;-44
2023/11/20 03:27:28;;;;;;;2.27;0.80;;;10.90;98.00;;;;;;4967877;28;20477;-43
2023/11/20 03:29:57;;;;;;;1.40;0.80;;;10.90;98.00;;;;;;4979797;28;20469;-44
2023/11/20 03:32:25;;;;;;;1.80;0.80;;;10.90;98.00;;;;;;4981457;28;20460;-44
2023/11/20 03:34:53;;;;;;;2.70;0.70;;;10.90;98.00;;;;;;4981903;28;20546;-44
2023/11/20 03:37:22;;;;;;;2.33;1.00;;;10.90;98.00;;;;;;4983979;28;20484;-44
2023/11/20 03:39:54;;;;;;;2.80;0.80;;;10.90;98.00;;;;;;4978906;28;20448;-44
2023/11/20 03:42:23;;;;;;;2.60;1.00;;;10.90;98.00;;;;;;4977615;28;20465;-43
2023/11/20 03:44:53;;;;;;;2.17;0.73;;;10.90;98.10;;;;;;4961579;28;20970;-44
2023/11/20 03:47:22;;;;;;;2.67;0.60;;;10.90;98.00;;;;;;4979177;28;20469;-44
2023/11/20 03:49:50;;;;;;;2.27;0.73;;;10.90;98.00;;;;;;4960407;28;20476;-44
2023/11/20 03:52:18;;;;;;;4.07;2.20;;;10.90;98.10;;;;;;4980004;28;20470;-44
2023/11/20 03:54:46;;;;;;;1.93;0.80;;;10.90;98.50;;;;;;4966182;28;20463;-44
2023/11/20 03:57:16;;;;;;;1.40;0.60;;;10.90;98.00;;;;;;4966994;28;20555;-43
2023/11/20 03:59:44;;;;;;;2.23;0.80;;;10.90;98.30;;;;;;4979067;28;20431;-44
2023/11/20 04:02:12;;;;;;;1.67;1.00;;;10.90;98.30;;;;;;4979971;28;20451;-43
2023/11/20 04:04:40;;;;;;;2.27;0.80;;;10.90;98.10;;;;;;4985653;28;20453;-44
2023/11/20 04:07:08;;;;;;;2.53;0.70;;;10.90;98.10;;;;;;4984947;28;20476;-44
2023/11/20 04:09:36;;;;;;;2.40;0.83;;;10.90;98.10;;;;;;4981105;28;20468;-44
2023/11/20 04:12:06;;;;;;;2.80;0.90;;;10.90;98.00;;;;;;4984697;28;20462;-44
2023/11/20 04:14:38;;;;;;;3.80;1.53;;;10.90;98.00;;;;;;4989385;28;20442;-43
2023/11/20 04:17:07;;;;;;;2.70;0.90;;;10.90;98.00;;;;;;4983331;28;20870;-44
2023/11/20 04:19:35;;;;;;;3.90;0.80;;;10.90;98.00;;;;;;4981757;28;20510;-43
2023/11/20 04:22:04;;;;;;;2.07;0.60;;;10.90;98.20;;;;;;4970551;28;20567;-44
2023/11/20 04:24:33;;;;;;;2.70;0.73;;;10.90;98.10;;;;;;4983049;28;20438;-44
2023/11/20 04:27:01;;;;;;;1.93;0.70;;;10.90;98.00;;;;;;4980611;28;20569;-43
2023/11/20 04:29:29;;;;;;;2.80;0.93;;;10.90;97.90;;;;;;4976542;28;20877;-45
2023/11/20 04:31:59;;;;;;;2.20;0.90;;;10.90;98.10;;;;;;4983073;28;20469;-44
2023/11/20 04:34:27;;;;;;;3.17;0.90;;;10.90;98.00;;;;;;4981545;28;20807;-44
2023/11/20 04:36:56;;;;;;;1.47;0.90;;;10.90;98.10;;;;;;4982261;28;20529;-44
2023/11/20 04:39:24;;;;;;;1.47;0.63;;;10.90;98.50;;;;;;4985195;28;20463;-45
2023/11/20 04:41:52;;;;;;;3.17;1.00;;;10.90;98.10;;;;;;4982200;28;20522;-44
2023/11/20 04:44:20;;;;;;;2.10;0.70;;;10.90;98.10;;;;;;4987112;28;20495;-44
2023/11/20 04:46:48;;;;;;;1.70;0.70;;;10.90;98.10;;;;;;4985821;28;20494;-44
2023/11/20 04:49:17;;;;;;;1.17;0.60;;;10.90;98.10;;;;;;4985629;28;20457;-44
2023/11/20 04:51:48;;;;;;;2.03;0.83;;;10.90;98.00;;;;;;4982304;28;20476;-44
2023/11/20 04:54:18;;;;;;;1.73;0.60;;;10.90;98.00;;;;;;4991589;28;20435;-44
2023/11/20 04:56:48;;;;;;;1.50;0.60;;;10.90;98.00;;;;;;4989419;28;20526;-44
2023/11/20 04:59:16;;;;;;;2.33;0.83;;;10.90;98.00;;;;;;4990027;28;20429;-44
2023/11/20 05:01:44;;;;;;;3.80;1.50;;;10.90;98.00;;;;;;4988445;28;20497;-44
2023/11/20 05:04:12;;;;;;;1.83;0.83;;;10.90;98.00;;;;;;4986552;28;20442;-44
2023/11/20 05:06:42;;;;;;;1.90;0.93;;;10.90;98.00;;;;;;4987922;28;20521;-44
2023/11/20 05:09:10;;;;;;;3.43;1.20;;;10.90;98.00;;;;;;4980814;28;20931;-44
2023/11/20 05:11:38;;;;;;;2.70;0.80;;;10.90;97.90;;;;;;4983214;28;20539;-43
2023/11/20 05:14:06;;;;;;;2.93;0.80;;;10.90;98.00;;;;;;4984495;28;20439;-44
2023/11/20 05:16:34;;;;;;;1.53;0.77;;;10.90;97.90;;;;;;4988426;28;20492;-44
2023/11/20 05:19:02;;;;;;;3.07;1.13;;;10.90;97.90;;;;;;4988455;28;20468;-44
2023/11/20 05:21:31;;;;;;;1.80;0.60;;;10.90;97.90;;;;;;4965080;28;20543;-43
2023/11/20 05:24:00;;;;;;;2.63;1.10;;;10.90;97.80;;;;;;4991012;28;20465;-44
2023/11/20 05:26:28;;;;;;;2.63;1.00;;;10.90;97.80;;;;;;4987260;28;20472;-43
2023/11/20 05:28:59;;;;;;;1.50;1.00;;;10.90;97.90;;;;;;4991542;28;20429;-44
2023/11/20 05:31:27;;;;;;;2.03;0.70;;;10.90;97.90;;;;;;4980435;28;20516;-43
2023/11/20 05:33:56;;;;;;;1.73;0.90;;;10.90;97.80;;;;;;4983867;28;20540;-44
2023/11/20 05:36:24;;;;;;;3.43;0.90;;;10.90;97.80;;;;;;4981319;28;20490;-43
2023/11/20 05:38:52;;;;;;;1.90;1.20;;;10.90;97.90;;;;;;4985412;28;21146;-44
2023/11/20 05:41:21;;;;;;;3.00;0.93;;;10.90;97.80;;;;;;4980496;28;20542;-43
2023/11/20 05:43:49;;;;;;;2.87;1.10;;;10.90;97.80;;;;;;4989614;28;20953;-43
2023/11/20 05:46:17;;;;;;;5.10;1.10;;;10.90;97.80;;;;;;4985026;28;20458;-44
2023/11/20 05:48:45;;;;;;;1.50;0.70;;;10.90;97.70;;;;;;4984437;28;20457;-44
2023/11/20 05:51:18;;;;;;;2.40;0.90;;;10.90;97.90;;;;;;4989937;28;20491;-44
2023/11/20 05:53:46;;;;;;;3.80;0.97;;;10.90;97.90;;;;;;4988840;28;20446;-43
2023/11/20 05:56:14;;;;;;;4.60;1.43;;;10.90;97.80;;;;;;4982185;28;20468;-44
2023/11/20 05:58:44;;;;;;;2.00;0.90;;;10.90;97.80;;;;;;4991177;28;20509;-44
2023/11/20 06:01:12;;;;;;;3.67;1.20;;;10.90;97.80;;;;;;4990354;28;21078;-44
2023/11/20 06:03:40;;;;;;;2.83;0.77;;;10.90;97.80;;;;;;4984413;28;20446;-44
2023/11/20 06:06:11;;;;;;;2.97;1.20;;;10.90;97.80;;;;;;4982474;28;20877;-44
2023/11/20 06:08:39;;;;;;;2.87;0.93;;;10.90;97.80;;;;;;4987494;28;20432;-43
2023/11/20 06:11:08;;;;;;;2.43;1.07;;;10.90;97.80;;;;;;4974880;28;20547;-44
2023/11/20 06:13:39;;;;;;;2.57;1.00;;;10.90;97.80;;;;;;4985322;28;20519;-44
2023/11/20 06:16:15;;;;;;;4.40;1.10;;;10.90;97.80;;;;;;4981190;28;20460;-43
2023/11/20 06:18:43;;;;;;;1.83;0.97;;;10.90;97.80;;;;;;4979297;28;20486;-44
2023/11/20 06:21:11;;;;;;;1.47;0.93;;;10.90;97.80;;;;;;4979393;28;20747;-43
2023/11/20 06:23:39;;;;;;;2.97;1.00;;;10.90;97.80;;;;;;4986026;28;20531;-44
2023/11/20 06:26:09;;;;;;;3.20;1.03;;;10.90;97.80;;;;;;4986493;28;21002;-44
2023/11/20 06:28:38;;;;;;;2.27;0.90;;;10.90;97.80;;;;;;4986885;28;20481;-44
2023/11/20 06:31:06;;;;;;;2.10;0.83;;;10.90;97.80;;;;;;4987857;28;20512;-43
2023/11/20 06:33:36;;;;;;;2.33;0.90;;;10.90;97.80;;;;;;4984665;28;20444;-44
2023/11/20 06:36:05;;;;;;;4.40;0.97;;;10.90;97.80;;;;;;4988169;28;20461;-43
2023/11/20 06:38:35;;;;;;;3.10;1.13;;;10.90;97.80;;;;;;4980091;28;20946;-43
2023/11/20 06:41:03;;;;;;;2.37;1.07;;;10.90;97.80;;;;;;4986275;28;20445;-43
2023/11/20 06:43:34;;;;;;;1.80;1.00;;;10.90;97.80;;;;;;4983901;28;20465;-44
2023/11/20 06:46:02;;;;;;;2.93;1.10;;;10.90;97.70;;;;;;4987984;28;20491;-44
2023/11/20 06:48:30;;;;;;;1.53;0.70;;;10.90;97.70;;;;;;4984451;28;20821;-44
2023/11/20 06:51:00;;;;;;;2.63;1.47;;;10.90;97.70;;;;;;4985080;28;20492;-43
2023/11/20 06:53:31;;;;;;;3.00;1.20;;;10.90;97.70;;;;;;4977944;28;20452;-45
2023/11/20 06:55:59;;;;;;;3.17;0.90;;;10.90;97.80;;;;;;4982603;28;21011;-44
2023/11/20 06:58:27;;;;;;;5.10;1.20;;;10.90;97.80;;;;;;4962403;28;20510;-44
2023/11/20 07:01:00;;;;;;;1.97;0.80;;;10.90;97.80;;;;;;4985213;28;20987;-44
2023/11/20 07:03:31;;;;;;;2.77;1.20;;;10.90;97.70;;;;;;4987571;28;20500;-43
2023/11/20 07:06:02;;;;;;;4.17;0.90;;;10.90;97.70;;;;;;4985192;28;20471;-43
2023/11/20 07:08:30;;;;;;;2.60;1.00;;;10.90;97.70;;;;;;4986096;28;20520;-44
2023/11/20 07:10:59;;;;;;;3.30;1.20;;;10.90;97.70;;;;;;4986432;28;20509;-43
2023/11/20 07:13:27;;;;;;;2.30;1.23;;;10.90;97.70;;;;;;4987347;28;20821;-44
2023/11/20 07:15:55;;;;;;;3.90;1.03;;;10.80;97.60;;;;;;4967585;28;20445;-43
2023/11/20 07:18:23;;;;;;;1.40;0.60;;;10.80;97.70;;;;;;4981889;28;20896;-44
2023/11/20 07:20:51;;;;;;;2.60;0.80;;;10.90;97.70;;;;;;4979061;28;20449;-43
2023/11/20 07:23:21;;;;;;;3.90;0.90;;;10.90;97.70;;;;;;4985577;28;20449;-43
2023/11/20 07:25:49;;;;;;;5.87;1.40;;;10.90;97.70;;;;;;4974914;28;20450;-43
2023/11/20 07:28:17;;;;;;;5.33;1.00;;;10.90;97.70;;;;;;4984491;28;20819;-43
2023/11/20 07:30:46;;;;;;;3.20;1.10;;;10.90;97.70;;;;;;4988738;28;20455;-43
2023/11/20 07:33:15;;;;;;;4.03;1.60;;;10.80;97.70;;;;;;4985605;28;20872;-43
2023/11/20 07:35:43;;;;;;;7.37;1.40;;;10.80;97.70;;;;;;4981737;28;20985;-42
2023/11/20 07:38:11;;;;;;;2.97;0.97;;;10.80;97.70;;;;;;4981057;28;20445;-44
2023/11/20 07:40:41;;;;;;;4.30;0.90;;;10.90;97.80;;;;;;4981980;28;20861;-43
2023/11/20 07:43:09;;;;;;;2.90;0.80;;;10.90;97.70;;;;;;4981827;28;20546;-44
2023/11/20 07:45:37;;;;;;;3.00;1.03;;;10.80;97.60;;;;;;4980734;28;20442;-44
2023/11/20 07:48:07;;;;;;;5.43;1.13;;;10.80;97.60;;;;;;4985812;28;20554;-44
2023/11/20 07:50:35;;;;;;;3.60;1.57;;;10.80;98.10;;;;;;4989058;28;20436;-44
2023/11/20 07:53:04;;;;;;;2.60;1.17;;;10.80;97.60;;;;;;4985351;28;20480;-44
2023/11/20 07:55:32;;;;;;;2.20;1.10;;;10.80;97.60;;;;;;4980060;28;20452;-43
2023/11/20 07:58:02;;;;;;;4.00;1.07;;;10.80;97.60;;;;;;4975336;28;20487;-43
2023/11/20 08:00:30;;;;;;;2.03;0.67;;;10.80;97.60;;;;;;4985682;28;20459;-43
2023/11/20 08:02:58;;;;;;;3.33;0.70;;;10.80;97.60;;;;;;4982191;28;20461;-43
2023/11/20 08:05:29;;;;;;;4.40;1.77;;;10.80;97.60;;;;;;4965345;28;20429;-43
2023/11/20 08:08:08;;;;;;;2.60;1.20;;;10.80;97.60;;;;;;4967304;28;20480;-43
2023/11/20 08:10:40;;;;;;;2.40;0.90;;;10.80;97.60;;;;;;4968783;28;20454;-43
2023/11/20 08:13:09;;;;;;;3.40;0.77;;;10.90;97.60;;;;;;4965743;28;20477;-43
2023/11/20 08:15:43;;;;;;;1.57;0.73;;;10.80;97.50;;;;;;4966741;28;20429;-44
2023/11/20 08:18:12;;;;;;;2.10;0.80;;;10.80;97.50;;;;;;4985788;28;21014;-44
2023/11/20 08:20:40;;;;;;;2.10;1.30;;;10.90;97.50;;;;;;4990089;28;20436;-44
2023/11/20 08:23:08;;;;;;;3.40;1.10;;;10.90;97.60;;;;;;4961872;28;21005;-43
2023/11/20 08:25:38;;;;;;;5.20;1.10;;;10.90;97.50;;;;;;4966304;28;20544;-44
2023/11/20 08:28:07;;;;;;;3.00;1.00;;;10.90;97.50;;;;;;4982949;28;20468;-43
2023/11/20 08:30:36;;;;;;;1.83;0.77;;;10.80;97.50;;;;;;4984596;28;20460;-45
2023/11/20 08:33:07;;;;;;;2.50;1.23;;;10.90;97.50;;;;;;4987064;28;20472;-44
2023/11/20 08:35:35;;;;;;;1.90;0.80;;;10.90;97.50;;;;;;4980778;28;20451;-43
2023/11/20 08:38:05;;;;;;;2.27;0.90;;;10.90;97.60;;;;;;4975895;28;20998;-44
2023/11/20 08:40:35;;;;;;;2.40;0.97;;;10.90;97.40;;;;;;4981501;28;20459;-44
2023/11/20 08:43:03;;;;;;;2.23;0.70;;;10.90;97.50;;;;;;4962716;28;20468;-43
2023/11/20 08:45:31;;;;;;;2.17;0.80;;;10.90;97.30;;;;;;4983653;28;20469;-44
2023/11/20 08:48:08;;;;;;;2.43;0.70;;;10.90;97.40;;;;;;4970261;28;20567;-44
2023/11/20 08:50:36;;;;;;;3.30;0.77;;;10.90;97.30;;;;;;4987476;28;20458;-44
2023/11/20 08:53:05;;;;;;;3.60;1.00;;;10.90;97.40;;;;;;4987659;28;20470;-44
2023/11/20 08:55:35;;;;;;;2.27;0.70;;;10.90;97.30;;;;;;4981511;28;20512;-44
2023/11/20 08:58:03;;;;;;;1.80;0.87;;;10.90;97.30;;;;;;4991198;28;20517;-44
2023/11/20 09:00:34;;;;;;;2.10;0.73;;;10.90;97.30;;;;;;4985314;28;20527;-45
2023/11/20 09:03:02;;;;;;;2.60;0.67;;;10.90;97.30;;;;;;4984671;28;20476;-44
2023/11/20 09:05:33;;;;;;;1.83;0.67;;;10.90;97.30;;;;;;4985375;28;20506;-44
2023/11/20 09:08:02;;;;;;;4.10;0.90;;;10.90;97.20;;;;;;4983862;28;20499;-44
2023/11/20 09:10:30;;;;;;;2.03;0.80;;;10.90;97.70;;;;;;4976180;28;20465;-44
2023/11/20 09:12:58;;;;;;;3.07;0.80;;;10.90;97.30;;;;;;4986344;28;20532;-44
2023/11/20 09:15:27;;;;;;;2.40;1.07;;;10.90;97.40;;;;;;4979612;28;20424;-44
2023/11/20 09:17:55;;;;;;;3.33;0.93;;;10.90;97.40;;;;;;4984484;28;20474;-44
2023/11/20 09:20:24;;;;;;;1.73;0.70;;;10.90;97.40;;;;;;4979822;28;20452;-44
2023/11/20 09:22:53;;;;;;;2.73;0.67;;;10.90;97.40;;;;;;4986985;28;20460;-43
2023/11/20 09:25:22;;;;;;;2.07;1.00;;;10.90;97.40;;;;;;4981661;28;20448;-43
2023/11/20 09:27:50;;;;;;;3.10;0.87;;;10.90;97.50;;;;;;4991317;28;20465;-43
2023/11/20 09:30:18;;;;;;;1.40;0.60;;;10.90;97.50;;;;;;4984180;28;20808;-44
2023/11/20 09:32:46;;;;;;;2.53;1.33;;;10.90;97.30;;;;;;4981407;28;20497;-44
2023/11/20 09:35:15;;;;;;;1.63;0.70;;;10.90;97.40;;;;;;4985644;28;20881;-44
2023/11/20 09:37:44;;;;;;;2.70;0.90;;;10.90;97.40;;;;;;4988108;28;20480;-43
2023/11/20 09:40:14;;;;;;;1.97;0.60;;;10.90;97.40;;;;;;4983931;28;20460;-44
2023/11/20 09:42:43;;;;;;;1.73;0.70;;;10.90;97.40;;;;;;4979788;28;20529;-43
2023/11/20 09:45:25;;;;;;;1.93;0.70;;;10.90;97.50;;;;;;4982075;28;20434;-44
2023/11/20 09:47:54;;;;;;;3.67;0.87;;;10.90;97.40;;;;;;4970384;28;20468;-47
2023/11/20 09:50:24;;;;;;;2.23;0.80;;;10.90;97.50;;;;;;4987242;28;20434;-44
2023/11/20 09:52:53;;;;;;;3.03;0.97;;;10.90;97.40;;;;;;4963061;28;20483;-44
2023/11/20 09:55:23;;;;;;;2.60;0.80;;;10.90;97.40;;;;;;4979937;28;20438;-44
2023/11/20 09:57:51;;;;;;;3.43;0.80;;;10.90;97.40;;;;;;4977291;28;20489;-44
2023/11/20 10:00:22;;;;;;;4.30;1.17;;;10.90;97.40;;;;;;4987038;28;20436;-43
2023/11/20 10:02:50;;;;;;;2.20;0.60;;;10.90;97.40;;;;;;4978088;28;20492;-43
2023/11/20 10:05:24;;;;;;;1.30;0.70;;;10.90;97.40;;;;;;4984484;28;20944;-45
2023/11/20 10:08:02;;;;;;;1.97;0.80;;;10.90;97.40;;;;;;4985679;28;20475;-43
2023/11/20 10:10:34;;;;;;;3.00;0.80;;;10.90;97.40;;;;;;4986008;28;20500;-44
2023/11/20 10:13:07;;;;;;;2.30;1.23;;;10.90;97.50;;;;;;4985808;28;20493;-43
2023/11/20 10:15:37;;;;;;;3.33;1.03;;;10.90;97.50;;;;;;4988518;28;20809;-43
2023/11/20 10:18:05;;;;;;;1.87;0.80;;;10.90;97.60;;;;;;4978574;28;20466;-44
2023/11/20 10:20:47;;;;;;;1.50;0.80;;;10.90;97.50;;;;;;4982551;28;20441;-44
2023/11/20 10:23:16;;;;;;;2.50;0.93;;;10.90;97.40;;;;;;4984649;28;20829;-43
2023/11/20 10:25:46;;;;;;;3.27;1.47;;;10.90;97.50;;;;;;4983806;28;20438;-44
2023/11/20 10:28:14;;;;;;;3.40;0.87;;;10.90;97.50;;;;;;4990566;28;20860;-43
2023/11/20 10:30:43;;;;;;;1.70;0.70;;;10.90;97.50;;;;;;4986719;28;20438;-44
2023/11/20 10:33:18;;;;;;;2.97;0.73;;;10.90;97.50;;;;;;4979586;28;20478;-43
2023/11/20 10:35:46;;;;;;;4.13;0.90;;;10.90;97.40;;;;;;4977047;28;20436;-44
2023/11/20 10:38:14;;;;;;;1.50;0.90;;;10.90;97.50;;;;;;4975895;28;21107;-43
2023/11/20 10:40:44;;;;;;;2.50;1.00;;;10.90;97.40;;;;;;4975033;28;20461;-43
2023/11/20 10:43:14;;;;;;;1.10;0.60;;;10.90;97.50;;;;;;4970798;28;20448;-44
2023/11/20 10:45:42;;;;;;;2.70;0.80;;;10.90;97.60;;;;;;4976954;28;20467;-44
2023/11/20 10:48:14;;;;;;;2.00;0.90;;;10.90;97.50;;;;;;4992470;28;20478;-43
2023/11/20 10:50:50;;;;;;;2.03;0.70;;;10.90;97.50;;;;;;4975597;28;20529;-44
2023/11/20 10:53:18;;;;;;;1.80;0.70;;;10.90;97.50;;;;;;4986721;28;20470;-43
2023/11/20 10:55:52;;;;;;;1.50;0.63;;;10.90;97.60;;;;;;4984910;28;20523;-43
2023/11/20 10:58:25;;;;;;;2.37;1.40;;;10.90;97.50;;;;;;4997079;28;20451;-43
2023/11/20 11:00:54;;;;;;;2.30;0.67;;;10.90;97.40;;;;;;4990797;28;20437;-43
2023/11/20 11:03:25;;;;;;;2.17;0.60;;;10.90;97.40;;;;;;4990439;28;20485;-44
2023/11/20 11:05:54;;;;;;;2.00;0.80;;;10.90;97.50;;;;;;4989278;28;20437;-44
2023/11/20 11:08:24;;;;;;;1.37;0.80;;;10.90;97.50;;;;;;4997348;28;20449;-44
2023/11/20 11:10:53;;;;;;;1.40;0.67;;;10.90;97.40;;;;;;4986271;28;20997;-43
2023/11/20 11:13:28;;;;;;;3.67;0.70;;;10.90;97.30;;;;;;4991759;28;20430;-44
2023/11/20 11:15:59;;;;;;;2.03;0.73;;;10.90;97.40;;;;;;4991996;28;20509;-44
2023/11/20 11:18:30;;;;;;;2.20;0.73;;;10.90;97.30;;;;;;4995566;28;20477;-44
2023/11/20 11:21:00;;;;;;;1.20;0.63;;;10.90;97.40;;;;;;4993889;28;20463;-43
2023/11/20 11:23:30;;;;;;;3.30;0.80;;;10.90;97.50;;;;;;4987210;28;20539;-43
2023/11/20 11:26:11;;;;;;;1.20;0.50;;;10.90;97.50;;;;;;4989968;28;20536;-43
2023/11/20 11:28:48;;;;;;;1.00;0.50;;;10.90;97.50;;;;;;4987047;28;20443;-43
2023/11/20 11:31:19;;;;;;;1.93;0.70;;;10.90;97.40;;;;;;4994061;28;20536;-44
2023/11/20 11:34:11;;;;;;;3.90;1.07;;;10.90;97.30;;;;;;4980373;28;20536;-43
2023/11/20 11:36:49;;;;;;;2.10;0.90;;;11.00;98.30;;;;;;4998660;28;20552;-44
2023/11/20 11:39:22;;;;;;;1.37;0.77;;;11.00;97.70;;;;;;4985164;28;20791;-44
2023/11/20 11:42:04;;;;;;;1.30;0.70;;;11.00;97.70;;;;;;4981538;28;20838;-44
2023/11/20 11:44:50;;;;;;;1.70;0.80;;;10.90;97.70;;;;;;4989206;28;20474;-44
2023/11/20 11:47:19;;;;;;;1.40;0.77;;;11.00;97.70;;;;;;4993411;28;21011;-44
2023/11/20 11:49:49;;;;;;;1.13;0.63;;;10.90;97.70;;;;;;4978880;28;20444;-44
2023/11/20 11:52:20;;;;;;;1.40;0.60;;;10.90;97.70;;;;;;4985022;28;20554;-45
2023/11/20 11:55:20;;;;;;;1.20;0.50;;;10.90;98.10;;;;;;4988357;28;21067;-43
2023/11/20 11:57:57;;;;;;;2.90;0.77;;;10.90;97.60;;;;;;4996978;28;20479;-44
2023/11/20 12:00:27;;;;;;;1.40;0.90;;;10.90;97.60;;;;;;5000641;28;20430;-44
2023/11/20 12:02:59;;;;;;;1.37;0.60;;;10.90;97.60;;;;;;4977110;28;20891;-43
2023/11/20 12:05:29;;;;;;;1.67;0.90;;;10.90;97.50;;;;;;4985483;28;20461;-44
2023/11/20 12:08:01;;;;;;;2.20;0.60;;;10.90;97.60;;;;;;4992909;28;20471;-43
2023/11/20 12:10:45;;;;;;;1.47;0.60;;;10.90;97.50;;;;;;4994094;28;21014;-43
2023/11/20 12:13:15;;;;;;;1.80;1.43;;;10.90;97.50;;;;;;4990601;28;20509;-44
2023/11/20 12:15:49;;;;;;;1.50;0.77;;;10.90;97.60;;;;;;4982432;28;20484;-43
2023/11/20 12:18:21;;;;;;;2.00;0.70;;;10.90;97.50;;;;;;4982436;28;20884;-45
2023/11/20 12:21:04;;;;;;;2.00;1.17;;;11.00;97.60;;;;;;4989412;28;20430;-43
2023/11/20 12:23:34;;;;;;;2.17;0.60;;;10.90;97.50;;;;;;4975282;28;20916;-43
2023/11/20 12:26:05;;;;;;;1.20;0.40;;;10.90;97.40;;;;;;4976981;28;20441;-43
2023/11/20 12:28:33;;;;;;;2.43;0.60;;;10.90;97.40;;;;;;4988136;28;20983;-43
2023/11/20 12:31:05;;;;;;;2.83;0.67;;;10.90;97.40;;;;;;4987732;28;20462;-43
2023/11/20 12:33:33;;;;;;;1.20;0.50;;;10.90;97.40;;;;;;4982414;28;20490;-43
2023/11/20 12:36:04;;;;;;;2.70;0.90;;;10.90;97.40;;;;;;4980303;28;20503;-43
2023/11/20 12:38:33;;;;;;;2.37;0.70;;;10.90;97.40;;;;;;4990352;28;20481;-43
2023/11/20 12:41:04;;;;;;;1.57;0.70;;;10.90;97.40;;;;;;4988564;28;20715;-43
2023/11/20 12:43:35;;;;;;;1.77;0.60;;;10.90;97.40;;;;;;4987853;28;20515;-44
2023/11/20 12:46:06;;;;;;;1.60;0.80;;;10.90;97.40;;;;;;4991614;28;20480;-44
2023/11/20 12:48:39;;;;;;;1.97;1.20;;;10.90;97.40;;;;;;4983372;28;20444;-45
2023/11/20 12:51:08;;;;;;;1.90;0.97;;;10.90;97.40;;;;;;4987167;28;20498;-43
2023/11/20 12:53:37;;;;;;;2.83;0.60;;;10.90;97.40;;;;;;4988557;28;20435;-44
2023/11/20 12:56:09;;;;;;;1.73;0.67;;;10.90;97.40;;;;;;4980403;28;20468;-44
2023/11/20 12:58:40;;;;;;;1.67;0.77;;;10.90;97.50;;;;;;4987072;28;20510;-44
2023/11/20 13:01:10;;;;;;;2.63;0.93;;;10.90;97.50;;;;;;4980552;28;20475;-43
2023/11/20 13:03:40;;;;;;;2.27;1.00;;;10.90;97.50;;;;;;4988884;28;20455;-44